Time;durP1;ratioP1;P1;durP2;ratioP2;P2;SDS_P1;SDS_P2;PMS_P1;PMS_P2;Temp;Humidity;BMP_temperature;BMP_pressure;BME280_temperature;BME280_humidity;BME280_pressure;Samples;Min_cycle;Max_cycle;Signal;HPM_P1;HPM_P2
2022/12/05 00:00:14;;;;;;;6.47;4.43;;;2.00;99.90;;;2.71;100.00;97949.38;5041991;28;20553;-82
2022/12/05 00:02:46;;;;;;;5.00;3.40;;;2.00;99.90;;;2.63;100.00;97954.41;5045318;28;20563;-82
2022/12/05 00:05:17;;;;;;;4.43;3.50;;;2.00;99.90;;;2.62;100.00;97955.38;5046730;28;21090;-82
2022/12/05 00:07:47;;;;;;;4.30;2.73;;;1.90;99.90;;;2.63;100.00;97959.59;5048933;28;20468;-82
2022/12/05 00:10:17;;;;;;;4.47;3.27;;;2.00;99.90;;;2.63;100.00;97962.97;5045837;28;20469;-83
2022/12/05 00:12:46;;;;;;;4.13;3.30;;;2.00;99.90;;;2.64;100.00;97961.22;5043317;28;20521;-82
2022/12/05 00:15:15;;;;;;;5.30;3.50;;;2.00;99.90;;;2.66;100.00;97967.88;5045815;28;20493;-82
2022/12/05 00:17:46;;;;;;;4.50;3.30;;;2.00;99.90;;;2.68;100.00;97970.28;5045882;28;21027;-82
2022/12/05 00:20:16;;;;;;;4.03;2.77;;;2.00;99.90;;;2.68;100.00;97972.88;5045718;28;20592;-82
2022/12/05 00:22:46;;;;;;;4.30;2.93;;;1.90;99.90;;;2.66;100.00;97970.44;5045300;28;20574;-82
2022/12/05 00:25:17;;;;;;;3.80;2.87;;;1.90;99.90;;;2.65;100.00;97973.16;5043886;28;20465;-81
2022/12/05 00:27:46;;;;;;;4.23;2.97;;;1.80;99.90;;;2.64;100.00;97972.31;5040436;28;20462;-82
2022/12/05 00:30:16;;;;;;;4.97;3.67;;;1.90;99.90;;;2.65;100.00;97973.16;5045041;28;20457;-83
2022/12/05 00:32:48;;;;;;;5.10;3.40;;;1.90;99.90;;;2.62;100.00;97981.19;5044163;28;20489;-82
2022/12/05 00:35:17;;;;;;;4.97;3.03;;;1.90;99.90;;;2.60;100.00;97980.50;5044390;28;20543;-82
2022/12/05 00:37:46;;;;;;;5.27;3.63;;;1.80;99.90;;;2.56;100.00;97985.13;5042754;28;20462;-82
2022/12/05 00:40:15;;;;;;;3.97;2.70;;;1.80;99.90;;;2.58;100.00;97977.22;5044715;28;20482;-82
2022/12/05 00:42:46;;;;;;;4.53;3.20;;;1.80;99.90;;;2.59;100.00;97979.69;5042368;28;20474;-82
2022/12/05 00:45:20;;;;;;;3.77;3.20;;;1.80;99.90;;;2.62;100.00;97976.00;5044823;28;20943;-82
2022/12/05 00:47:51;;;;;;;6.10;3.57;;;1.90;99.90;;;2.65;100.00;97973.97;5045056;28;20527;-82
2022/12/05 00:50:21;;;;;;;5.77;3.50;;;2.00;99.90;;;2.66;100.00;97975.59;5043880;28;20535;-82
2022/12/05 00:52:52;;;;;;;3.63;2.90;;;2.00;99.90;;;2.66;100.00;97972.19;5041464;28;20527;-82
2022/12/05 00:55:20;;;;;;;4.90;3.23;;;1.90;99.90;;;2.66;100.00;97974.78;5046098;28;20457;-82
2022/12/05 00:57:50;;;;;;;4.87;3.23;;;1.90;99.90;;;2.64;100.00;97971.53;5045363;28;20832;-82
2022/12/05 01:00:21;;;;;;;7.27;4.00;;;1.90;99.90;;;2.62;100.00;97970.84;5044477;28;20489;-82
2022/12/05 01:02:53;;;;;;;5.00;3.10;;;1.90;99.90;;;2.62;100.00;97968.28;5044302;28;20481;-82
2022/12/05 01:05:23;;;;;;;5.30;3.40;;;1.90;99.90;;;2.61;100.00;97975.19;5046901;28;20477;-82
2022/12/05 01:07:52;;;;;;;3.27;2.90;;;1.90;99.90;;;2.65;100.00;97988.63;5046138;28;20947;-82
2022/12/05 01:10:23;;;;;;;5.20;3.50;;;1.90;99.90;;;2.64;100.00;97987.81;5041401;28;20473;-82
2022/12/05 01:12:52;;;;;;;4.17;3.30;;;1.90;99.90;;;2.59;100.00;97984.84;5040032;28;20491;-82
2022/12/05 01:15:21;;;;;;;3.60;2.90;;;1.90;99.90;;;2.60;100.00;97985.69;5043938;28;20899;-82
2022/12/05 01:17:52;;;;;;;3.90;2.90;;;1.90;99.90;;;2.61;100.00;97984.69;5045023;28;20499;-83
2022/12/05 01:20:22;;;;;;;3.93;2.63;;;1.90;99.90;;;2.62;100.00;97983.75;5046294;28;20585;-81
2022/12/05 01:22:52;;;;;;;4.90;3.20;;;1.90;99.90;;;2.64;100.00;97987.03;5047158;28;20461;-82
2022/12/05 01:25:22;;;;;;;4.60;3.33;;;1.90;99.90;;;2.64;100.00;97987.81;5042665;28;20489;-81
2022/12/05 01:27:52;;;;;;;6.40;3.80;;;2.00;99.90;;;2.60;100.00;97990.84;5045591;28;20488;-82
2022/12/05 01:30:21;;;;;;;5.50;3.50;;;2.00;99.90;;;2.58;100.00;97992.72;5042244;28;20472;-82
2022/12/05 01:32:51;;;;;;;5.00;3.33;;;1.90;99.90;;;2.58;100.00;97997.88;5044527;28;20595;-82
2022/12/05 01:35:20;;;;;;;4.07;3.17;;;1.90;99.90;;;2.61;100.00;98001.00;5044524;28;20485;-82
2022/12/05 01:37:50;;;;;;;6.30;3.07;;;1.90;99.90;;;2.64;100.00;97997.34;5041006;28;20467;-82
2022/12/05 01:40:19;;;;;;;4.23;3.13;;;2.00;99.90;;;2.63;100.00;98000.88;5044257;28;20481;-82
2022/12/05 01:42:49;;;;;;;4.23;3.17;;;2.00;99.90;;;2.62;100.00;98004.41;5043586;28;21044;-82
2022/12/05 01:45:26;;;;;;;6.97;3.23;;;2.00;99.90;;;2.61;100.00;98000.19;5042071;28;20461;-82
2022/12/05 01:47:58;;;;;;;4.67;3.50;;;1.90;99.90;;;2.63;100.00;98000.88;5041198;28;20534;-82
2022/12/05 01:50:28;;;;;;;5.13;3.50;;;2.00;99.90;;;2.62;100.00;98009.56;5041232;28;20902;-82
2022/12/05 01:52:58;;;;;;;5.37;3.83;;;1.90;99.90;;;2.57;100.00;98004.03;5042459;28;20576;-81
2022/12/05 01:55:27;;;;;;;5.40;4.30;;;2.00;99.90;;;2.56;100.00;98010.13;5043403;28;20475;-82
2022/12/05 01:57:58;;;;;;;5.60;3.13;;;1.90;99.90;;;2.56;100.00;98002.38;5043806;28;20460;-82
2022/12/05 02:00:28;;;;;;;7.20;4.20;;;1.90;99.90;;;2.57;100.00;98022.88;5040570;28;20987;-82
2022/12/05 02:03:04;;;;;;;8.50;4.13;;;1.90;99.90;;;2.61;100.00;98015.66;5039810;28;20921;-82
2022/12/05 02:05:36;;;;;;;5.10;3.40;;;1.90;99.90;;;2.62;100.00;98012.97;5042692;28;20485;-82
2022/12/05 02:08:10;;;;;;;6.50;4.10;;;2.00;99.90;;;2.65;100.00;98012.69;5043972;28;20463;-82
2022/12/05 02:10:44;;;;;;;4.43;3.47;;;1.90;99.90;;;2.66;100.00;98010.91;5040241;28;20492;-81
2022/12/05 02:13:37;;;;;;;4.87;3.13;;;1.90;99.90;;;2.60;100.00;98004.56;5041395;28;20496;-81
2022/12/05 02:16:19;;;;;;;4.77;3.53;;;1.90;99.90;;;2.60;100.00;98006.31;5041778;28;20467;-81
2022/12/05 02:19:11;;;;;;;4.80;3.10;;;1.90;99.90;;;2.59;100.00;98004.69;5043739;28;20464;-81
2022/12/05 02:22:37;;;;;;;5.17;3.87;;;1.90;99.90;;;2.63;100.00;98004.28;5044574;28;20551;-82
2022/12/05 02:25:58;;;;;;;5.37;3.47;;;1.90;99.90;;;2.61;100.00;98007.94;5040147;28;20551;-82
2022/12/05 02:28:56;;;;;;;3.90;3.13;;;1.80;99.90;;;2.62;100.00;98007.81;5044051;28;20466;-81
2022/12/05 02:31:36;;;;;;;4.37;3.60;;;1.90;99.90;;;2.65;100.00;98009.28;5039699;28;20469;-82
2022/12/05 02:34:16;;;;;;;4.80;3.57;;;1.90;99.90;;;2.65;100.00;98001.53;5043142;28;21104;-82
2022/12/05 02:36:55;;;;;;;3.50;3.10;;;1.90;99.90;;;2.64;100.00;98003.31;5042842;28;20471;-82
2022/12/05 02:39:36;;;;;;;4.40;3.43;;;1.90;99.90;;;2.63;100.00;98008.63;5042818;28;20926;-81
2022/12/05 02:42:17;;;;;;;5.30;3.37;;;2.00;99.90;;;2.62;100.00;98004.41;5043264;28;20550;-81
2022/12/05 02:44:52;;;;;;;5.83;3.57;;;2.00;99.90;;;2.62;100.00;98004.41;5042169;28;20545;-83
2022/12/05 02:47:30;;;;;;;5.57;3.20;;;1.90;99.90;;;2.63;100.00;98008.63;5040645;28;20470;-82
2022/12/05 02:50:00;;;;;;;4.70;3.13;;;2.00;99.90;;;2.67;100.00;97999.66;5040909;28;20564;-82
2022/12/05 02:52:31;;;;;;;5.60;3.63;;;2.00;99.90;;;2.69;100.00;97995.97;5041058;28;20473;-81
2022/12/05 02:55:03;;;;;;;5.00;3.20;;;2.00;99.90;;;2.70;100.00;97989.88;5043192;28;20489;-82
2022/12/05 02:57:34;;;;;;;5.60;3.10;;;2.00;99.90;;;2.69;100.00;98000.31;5040677;28;20473;-81
2022/12/05 03:00:05;;;;;;;8.77;3.23;;;1.90;99.90;;;2.66;100.00;97992.84;5041738;28;20462;-81
2022/12/05 03:02:39;;;;;;;5.10;3.57;;;2.00;99.90;;;2.66;100.00;97998.00;5045229;28;20476;-82
2022/12/05 03:05:21;;;;;;;5.20;3.10;;;1.90;99.90;;;2.68;100.00;98004.66;5043056;28;20464;-81
2022/12/05 03:07:56;;;;;;;4.50;3.37;;;2.00;99.90;;;2.67;100.00;98007.41;5043978;28;20505;-82
2022/12/05 03:10:31;;;;;;;7.07;3.50;;;2.00;99.90;;;2.66;100.00;98001.41;5043494;28;20461;-81
2022/12/05 03:13:10;;;;;;;4.97;3.63;;;2.00;99.90;;;2.67;100.00;98004.81;5047804;28;20587;-82
2022/12/05 03:15:47;;;;;;;4.03;3.33;;;2.00;99.90;;;2.65;100.00;98004.13;5044265;28;21038;-81
2022/12/05 03:18:24;;;;;;;6.30;3.67;;;1.90;99.90;;;2.62;100.00;98001.81;5047537;28;20492;-82
2022/12/05 03:21:01;;;;;;;6.30;3.43;;;1.90;99.90;;;2.64;100.00;97990.41;5047702;28;20460;-81
2022/12/05 03:23:37;;;;;;;5.20;3.40;;;1.90;99.90;;;2.68;100.00;97990.94;5043521;28;20853;-81
2022/12/05 03:26:19;;;;;;;6.10;4.23;;;2.00;99.90;;;2.69;100.00;97995.16;5045607;28;20540;-82
2022/12/05 03:29:05;;;;;;;5.33;3.40;;;2.00;99.90;;;2.71;100.00;97988.88;5042028;28;20554;-82
2022/12/05 03:31:44;;;;;;;5.93;3.50;;;2.10;99.90;;;2.70;100.00;97997.59;5040144;28;20461;-81
2022/12/05 03:34:24;;;;;;;5.90;4.07;;;2.10;99.90;;;2.67;100.00;98004.81;5044992;28;20489;-81
2022/12/05 03:36:54;;;;;;;8.97;3.40;;;2.10;99.90;;;2.71;100.00;97988.09;5043549;28;20464;-82
2022/12/05 03:39:29;;;;;;;6.57;3.97;;;2.10;99.90;;;2.74;100.00;97988.59;5041540;28;20571;-81
2022/12/05 03:42:09;;;;;;;4.80;3.13;;;2.20;99.90;;;2.75;100.00;98007.50;5042244;28;21262;-81
2022/12/05 03:44:50;;;;;;;4.90;3.57;;;2.20;99.90;;;2.73;100.00;98017.16;5042376;28;20519;-83
2022/12/05 03:47:29;;;;;;;5.03;3.60;;;2.10;99.90;;;2.72;100.00;98031.81;5047379;28;20488;-82
2022/12/05 03:50:06;;;;;;;5.37;3.80;;;2.10;99.90;;;2.73;100.00;98024.91;5041783;28;20475;-82
2022/12/05 03:52:45;;;;;;;4.73;3.80;;;2.10;99.90;;;2.72;100.00;98026.66;5048244;28;20472;-83
2022/12/05 03:55:38;;;;;;;5.20;3.43;;;2.10;99.90;;;2.73;100.00;98032.66;5046638;28;20489;-83
2022/12/05 03:58:17;;;;;;;5.47;4.10;;;2.10;99.90;;;2.74;100.00;98031.69;5047195;28;21143;-83
2022/12/05 04:00:53;;;;;;;5.13;4.03;;;2.10;99.90;;;2.74;100.00;98047.19;5042358;28;20493;-83
2022/12/05 04:03:37;;;;;;;4.87;3.67;;;2.10;99.90;;;2.76;100.00;98050.44;5048485;28;20465;-83
2022/12/05 04:06:18;;;;;;;8.13;4.23;;;2.10;99.90;;;2.78;100.00;98046.75;5043402;28;20544;-83
2022/12/05 04:08:53;;;;;;;6.20;3.93;;;2.10;99.90;;;2.78;100.00;98051.91;5045282;28;20505;-82
2022/12/05 04:11:28;;;;;;;3.70;3.13;;;2.20;99.90;;;2.79;100.00;98045.81;5044344;28;20544;-83
2022/12/05 04:14:05;;;;;;;5.80;3.57;;;2.10;99.90;;;2.80;100.00;98054.38;5039911;28;20579;-83
2022/12/05 04:22:30;;;;;;;3.70;3.40;;;2.10;99.90;;;2.81;100.00;98079.25;5045345;28;20468;-83
2022/12/05 04:27:59;;;;;;;5.70;3.63;;;2.10;99.90;;;2.80;100.00;98080.19;5043990;28;20560;-83
2022/12/05 04:30:39;;;;;;;4.80;3.57;;;2.20;99.90;;;2.83;100.00;98079.91;5041489;28;20467;-83
2022/12/05 04:33:17;;;;;;;3.23;2.93;;;2.20;99.90;;;2.83;100.00;98077.34;5044793;28;20453;-83
2022/12/05 04:35:54;;;;;;;5.40;3.33;;;2.20;99.90;;;2.83;100.00;98091.06;5046611;28;20497;-84
2022/12/05 04:38:32;;;;;;;5.17;3.80;;;2.30;99.90;;;2.84;100.00;98089.31;5042458;28;20556;-83
2022/12/05 04:41:06;;;;;;;4.60;2.90;;;2.10;99.90;;;2.83;100.00;98096.22;5042253;28;21008;-83
2022/12/05 04:43:40;;;;;;;4.00;3.27;;;2.10;99.90;;;2.85;100.00;98098.66;5045204;28;20500;-83
2022/12/05 04:46:14;;;;;;;5.90;4.30;;;2.20;99.90;;;2.86;100.00;98095.13;5041668;28;20464;-83
2022/12/05 04:48:49;;;;;;;4.03;3.23;;;2.20;99.90;;;2.88;100.00;98095.81;5044261;28;20536;-83
2022/12/05 04:51:23;;;;;;;5.10;3.83;;;2.20;99.90;;;2.88;100.00;98094.03;5044308;28;20465;-83
2022/12/05 04:53:59;;;;;;;6.27;3.20;;;2.20;99.90;;;2.89;100.00;98089.69;5043923;28;21038;-83
2022/12/05 04:56:33;;;;;;;3.57;2.83;;;2.20;99.90;;;2.89;100.00;98090.50;5042990;28;20548;-83
2022/12/05 04:59:01;;;;;;;4.50;3.37;;;2.20;99.90;;;2.89;100.00;98079.34;5040925;28;20540;-83
2022/12/05 05:01:41;;;;;;;6.43;3.70;;;2.20;99.90;;;2.89;100.00;98087.94;5041441;28;20906;-83
2022/12/05 05:04:17;;;;;;;3.73;2.63;;;2.20;99.90;;;2.92;100.00;98076.50;5043048;28;20466;-83
2022/12/05 05:06:46;;;;;;;4.53;3.33;;;2.30;99.90;;;2.90;100.00;98081.81;5043062;28;21144;-83
2022/12/05 05:09:17;;;;;;;4.00;3.30;;;2.20;99.90;;;2.90;100.00;98079.22;5044314;28;20544;-83
2022/12/05 05:11:46;;;;;;;7.37;3.83;;;2.20;99.90;;;2.92;100.00;98079.06;5045327;28;20481;-83
2022/12/05 05:14:17;;;;;;;3.53;3.00;;;2.20;99.90;;;2.93;100.00;98081.53;5044448;28;20513;-82
2022/12/05 05:16:47;;;;;;;4.47;2.77;;;2.20;99.90;;;2.93;100.00;98065.22;5043086;28;20476;-84
2022/12/05 05:19:17;;;;;;;3.30;2.60;;;2.30;99.90;;;2.95;100.00;98073.66;5042916;28;20549;-83
2022/12/05 05:21:47;;;;;;;5.70;3.30;;;2.20;99.90;;;2.93;100.00;98067.81;5043050;28;20989;-83
2022/12/05 05:24:20;;;;;;;5.60;3.63;;;2.20;99.90;;;2.94;100.00;98072.84;5043707;28;20471;-83
2022/12/05 05:26:49;;;;;;;4.23;3.30;;;2.20;99.90;;;2.94;100.00;98079.78;5042890;28;20467;-83
2022/12/05 05:29:24;;;;;;;5.03;3.30;;;2.20;99.90;;;2.95;100.00;98079.63;5046492;28;20552;-83
2022/12/05 05:31:54;;;;;;;3.53;3.20;;;2.30;99.90;;;2.92;100.00;98090.22;5043988;28;20464;-83
2022/12/05 05:34:25;;;;;;;3.63;3.30;;;2.20;99.90;;;2.94;100.00;98087.53;5046437;28;20493;-83
2022/12/05 05:36:55;;;;;;;8.50;4.13;;;2.30;99.90;;;2.95;100.00;98089.16;5046527;28;20497;-83
2022/12/05 05:39:28;;;;;;;5.20;3.33;;;2.30;99.90;;;2.97;100.00;98097.56;5045512;28;20594;-83
2022/12/05 05:41:57;;;;;;;4.63;3.37;;;2.40;99.90;;;2.97;100.00;98095.81;5040988;28;20495;-83
2022/12/05 05:44:27;;;;;;;7.03;3.90;;;2.30;99.90;;;2.97;100.00;98107.91;5042713;28;20461;-83
2022/12/05 05:46:56;;;;;;;5.27;3.50;;;2.30;99.90;;;2.98;100.00;98110.34;5041560;28;20514;-83
2022/12/05 05:49:26;;;;;;;5.17;3.50;;;2.30;99.90;;;2.98;100.00;98107.78;5040329;28;20469;-83
2022/12/05 05:51:56;;;;;;;9.60;3.87;;;2.40;99.90;;;2.98;100.00;98099.22;5042075;28;20464;-83
2022/12/05 05:54:27;;;;;;;3.40;3.10;;;2.30;99.90;;;3.00;100.00;98097.28;5046327;28;20577;-83
2022/12/05 05:56:57;;;;;;;6.70;3.70;;;2.30;99.90;;;3.00;100.00;98100.69;5043571;28;20494;-83
2022/12/05 05:59:27;;;;;;;8.10;3.90;;;2.30;99.90;;;3.00;100.00;98102.44;5041186;28;20473;-83
2022/12/05 06:01:57;;;;;;;5.50;2.43;;;2.30;99.90;;;3.00;100.00;98100.69;5044061;28;20500;-83
2022/12/05 06:04:27;;;;;;;5.47;4.20;;;2.30;99.90;;;3.00;100.00;98103.28;5042274;28;20466;-83
2022/12/05 06:06:57;;;;;;;5.77;3.83;;;2.30;99.90;;;3.01;100.00;98096.34;5045692;28;20498;-83
2022/12/05 06:09:27;;;;;;;5.80;4.03;;;2.30;99.90;;;3.00;100.00;98105.84;5042989;28;20477;-83
2022/12/05 06:11:57;;;;;;;5.40;3.40;;;2.40;99.90;;;3.02;100.00;98105.69;5040302;28;20568;-83
2022/12/05 06:14:26;;;;;;;3.67;3.13;;;2.40;99.90;;;3.00;100.00;98116.19;5038269;28;20458;-83
2022/12/05 06:16:56;;;;;;;7.67;4.43;;;2.30;99.90;;;2.99;100.00;98118.88;5041238;28;20474;-83
2022/12/05 06:19:25;;;;;;;6.30;4.00;;;2.30;99.90;;;2.97;100.00;98129.38;5042570;28;20458;-83
2022/12/05 06:21:55;;;;;;;5.23;3.63;;;2.30;99.90;;;2.98;100.00;98120.69;5042148;28;20473;-83
2022/12/05 06:24:26;;;;;;;5.20;3.80;;;2.30;99.90;;;2.99;100.00;98126.63;5039993;28;20472;-83
2022/12/05 06:26:56;;;;;;;8.73;4.10;;;2.30;99.90;;;3.00;100.00;98123.13;5040989;28;20522;-83
2022/12/05 06:29:26;;;;;;;8.27;4.70;;;2.30;99.90;;;3.02;100.00;98116.03;5043094;28;20830;-82
2022/12/05 06:32:01;;;;;;;8.73;6.07;;;2.40;99.90;;;3.01;100.00;98117.81;5039630;28;20520;-83
2022/12/05 06:34:31;;;;;;;5.10;3.87;;;2.50;99.90;;;3.01;100.00;98124.75;5041520;28;20765;-83
2022/12/05 06:37:02;;;;;;;6.60;3.93;;;2.40;99.90;;;2.99;100.00;98127.47;5047594;28;20595;-84
2022/12/05 06:39:33;;;;;;;5.17;4.20;;;2.40;99.90;;;3.00;100.00;98138.59;5047202;28;20536;-83
2022/12/05 06:42:04;;;;;;;5.33;3.70;;;2.40;99.90;;;3.01;100.00;98137.66;5045679;28;20507;-83
2022/12/05 06:44:34;;;;;;;4.80;3.67;;;2.50;99.90;;;3.01;100.00;98140.25;5045336;28;20465;-83
2022/12/05 06:47:03;;;;;;;4.90;3.97;;;2.50;99.90;;;3.00;100.00;98143.78;5045914;28;20481;-83
2022/12/05 06:49:33;;;;;;;4.00;3.60;;;2.40;99.90;;;3.01;100.00;98142.84;5047239;28;20472;-83
2022/12/05 06:52:06;;;;;;;6.90;4.37;;;2.40;99.90;;;3.01;100.00;98145.41;5043723;28;20526;-83
2022/12/05 06:54:38;;;;;;;5.00;3.40;;;2.40;99.90;;;3.01;100.00;98150.56;5043633;28;20460;-83
2022/12/05 06:57:08;;;;;;;6.50;4.70;;;2.30;99.90;;;3.02;100.00;98154.78;5047203;28;20576;-83
2022/12/05 06:59:38;;;;;;;5.00;3.87;;;2.30;99.90;;;3.03;100.00;98149.47;5045171;28;20504;-83
2022/12/05 07:02:07;;;;;;;6.53;4.60;;;2.30;99.90;;;3.02;100.00;98155.59;5045874;28;20479;-83
2022/12/05 07:04:36;;;;;;;5.83;4.03;;;2.30;99.90;;;3.01;100.00;98158.31;5046995;28;20463;-83
2022/12/05 07:07:05;;;;;;;6.40;4.47;;;2.30;99.90;;;3.01;100.00;98159.16;5045510;28;20454;-83
2022/12/05 07:09:52;;;;;;;6.10;4.10;;;2.30;99.90;;;3.04;100.00;98158.06;5044580;28;20540;-85
2022/12/05 07:12:21;;;;;;;6.63;4.63;;;2.40;99.90;;;3.08;100.00;98162.00;5044136;28;20468;-84
2022/12/05 07:14:51;;;;;;;6.37;3.50;;;2.40;99.90;;;3.08;100.00;98169.75;5046238;28;20487;-83
2022/12/05 07:17:21;;;;;;;5.87;4.37;;;2.40;99.90;;;3.10;100.00;98174.75;5043867;28;20496;-83
2022/12/05 07:19:51;;;;;;;7.90;3.93;;;2.40;99.90;;;3.10;100.00;98169.59;5044562;28;21043;-84
2022/12/05 07:22:22;;;;;;;6.43;4.00;;;2.40;99.90;;;3.13;100.00;98172.72;5042691;28;20486;-84
2022/12/05 07:24:53;;;;;;;5.33;4.10;;;2.50;99.90;;;3.13;100.00;98170.13;5047924;28;20463;-84
2022/12/05 07:27:23;;;;;;;6.70;4.23;;;2.50;99.90;;;3.11;100.00;98172.03;5045024;28;20471;-84
2022/12/05 07:29:56;;;;;;;9.47;4.40;;;2.40;99.90;;;3.14;100.00;98170.94;5044361;28;20517;-84
2022/12/05 07:32:25;;;;;;;5.23;3.33;;;2.40;99.90;;;3.15;100.00;98178.56;5040941;28;20513;-85
2022/12/05 07:34:55;;;;;;;7.90;4.00;;;2.50;99.90;;;3.15;100.00;98175.16;5047268;28;20471;-84
2022/12/05 07:37:24;;;;;;;5.67;4.07;;;2.50;99.90;;;3.15;100.00;98181.16;5047850;28;20503;-84
2022/12/05 07:39:55;;;;;;;7.20;4.00;;;2.50;99.90;;;3.14;100.00;98187.28;5045120;28;20473;-84
2022/12/05 07:42:25;;;;;;;9.30;4.73;;;2.50;99.90;;;3.14;100.00;98189.03;5045105;28;21431;-84
2022/12/05 07:44:54;;;;;;;8.67;4.70;;;2.50;99.90;;;3.14;100.00;98192.44;5043036;28;20477;-84
2022/12/05 07:47:23;;;;;;;6.97;4.47;;;2.50;99.90;;;3.16;100.00;98194.91;5044634;28;20545;-84
2022/12/05 07:49:53;;;;;;;9.13;4.33;;;2.40;99.90;;;3.15;100.00;98190.69;5039254;28;20472;-83
2022/12/05 07:52:22;;;;;;;5.20;3.50;;;2.50;99.90;;;3.15;100.00;98183.75;5043183;28;20552;-84
2022/12/05 07:54:53;;;;;;;8.67;3.80;;;2.40;99.90;;;3.15;100.00;98188.91;5043389;28;21134;-83
2022/12/05 07:57:24;;;;;;;7.50;4.27;;;2.50;99.90;;;3.16;100.00;98187.94;5044063;28;20576;-83
2022/12/05 07:59:53;;;;;;;6.90;3.77;;;2.50;99.90;;;3.18;100.00;98195.56;5043267;28;20471;-83
2022/12/05 08:02:23;;;;;;;7.90;4.67;;;2.50;99.90;;;3.15;100.00;98190.69;5043385;28;20484;-84
2022/12/05 08:04:52;;;;;;;6.37;3.87;;;2.50;99.90;;;3.15;100.00;98203.59;5045200;28;20469;-84
2022/12/05 08:07:21;;;;;;;7.00;4.83;;;2.50;99.90;;;3.17;100.00;98206.84;5047398;28;20572;-83
2022/12/05 08:09:50;;;;;;;9.30;4.77;;;2.50;99.90;;;3.17;100.00;98210.25;5048058;28;20467;-84
2022/12/05 08:12:22;;;;;;;8.37;4.60;;;2.60;99.90;;;3.18;100.00;98211.88;5044012;28;20480;-83
2022/12/05 08:14:51;;;;;;;10.23;5.30;;;2.50;99.90;;;3.18;100.00;98211.06;5043357;28;20493;-83
2022/12/05 08:17:21;;;;;;;9.50;4.50;;;2.50;99.90;;;3.20;100.00;98202.22;5040281;28;20521;-83
2022/12/05 08:19:51;;;;;;;10.67;5.40;;;2.60;99.90;;;3.23;100.00;98203.72;5039283;28;20467;-83
2022/12/05 08:22:20;;;;;;;7.30;5.07;;;2.60;99.90;;;3.21;100.00;98203.84;5045107;28;20465;-83
2022/12/05 08:24:50;;;;;;;9.83;5.03;;;2.60;99.90;;;3.23;100.00;98209.69;5045451;28;20462;-83
2022/12/05 08:27:26;;;;;;;9.77;5.13;;;2.60;99.90;;;3.24;100.00;98208.75;5043461;28;20453;-83
2022/12/05 08:29:56;;;;;;;9.07;5.33;;;2.60;99.90;;;3.24;100.00;98213.09;5044309;28;20472;-84
2022/12/05 08:32:27;;;;;;;9.57;5.43;;;2.60;99.90;;;3.26;100.00;98217.19;5047699;28;20520;-84
2022/12/05 08:34:56;;;;;;;8.30;4.70;;;2.60;99.90;;;3.28;100.00;98219.63;5044585;28;20469;-83
2022/12/05 08:37:25;;;;;;;5.87;4.97;;;2.70;99.90;;;3.28;100.00;98215.28;5043631;28;20504;-83
2022/12/05 08:39:54;;;;;;;8.97;5.63;;;2.70;99.90;;;3.30;100.00;98222.88;5046559;28;20469;-83
2022/12/05 08:42:26;;;;;;;12.30;5.20;;;2.70;99.90;;;3.31;100.00;98222.75;5046783;28;20464;-83
2022/12/05 08:44:56;;;;;;;9.53;5.73;;;2.70;99.90;;;3.31;100.00;98227.91;5042703;28;20461;-83
2022/12/05 08:47:26;;;;;;;8.73;4.97;;;2.70;99.90;;;3.33;100.00;98226.00;5042286;28;20478;-84
2022/12/05 08:49:56;;;;;;;10.70;5.93;;;2.70;99.90;;;3.35;100.00;98231.88;5040932;28;20466;-83
2022/12/05 08:52:26;;;;;;;7.03;5.17;;;2.70;99.90;;;3.37;100.00;98224.78;5044673;28;20742;-83
2022/12/05 08:54:56;;;;;;;9.47;5.57;;;2.70;99.90;;;3.38;100.00;98236.75;5045165;28;20477;-83
2022/12/05 08:57:28;;;;;;;9.67;5.57;;;2.80;99.90;;;3.38;100.00;98247.09;5045539;28;21055;-82
2022/12/05 08:59:58;;;;;;;10.63;5.50;;;2.80;99.90;;;3.40;100.00;98250.34;5035096;28;20858;-81
2022/12/05 09:02:28;;;;;;;23.03;5.97;;;2.70;99.90;;;3.41;100.00;98246.81;5044433;28;20472;-83
2022/12/05 09:04:57;;;;;;;12.90;5.90;;;2.80;99.90;;;3.45;100.00;98255.09;5039378;28;20951;-83
2022/12/05 09:07:47;;;;;;;13.13;6.20;;;2.80;99.90;;;3.47;100.00;98256.59;5043571;28;20507;-83
2022/12/05 09:10:16;;;;;;;8.97;5.13;;;2.80;99.90;;;3.48;100.00;98257.41;5039918;28;20457;-82
2022/12/05 09:12:49;;;;;;;11.10;5.73;;;2.80;99.90;;;3.49;100.00;98254.72;5043739;28;20471;-83
2022/12/05 09:15:18;;;;;;;9.50;5.30;;;2.90;99.90;;;3.51;100.00;98259.72;5042729;28;20496;-84
2022/12/05 09:17:47;;;;;;;6.40;4.00;;;2.80;99.90;;;3.52;100.00;98267.34;5045717;28;21119;-83
2022/12/05 09:20:17;;;;;;;7.73;4.40;;;2.90;99.90;;;3.55;100.00;98269.66;5045064;28;20952;-84
2022/12/05 09:22:45;;;;;;;9.33;4.93;;;2.90;99.90;;;3.56;100.00;98273.06;5045403;28;20556;-84
2022/12/05 09:25:15;;;;;;;7.90;5.07;;;3.00;99.90;;;3.56;100.00;98278.22;5046243;28;20477;-84
2022/12/05 09:27:46;;;;;;;10.03;4.30;;;3.00;99.90;;;3.58;100.00;98283.25;5046814;28;20461;-83
2022/12/05 09:30:22;;;;;;;10.73;4.57;;;3.00;99.90;;;3.60;100.00;98282.19;5042918;28;20485;-83
2022/12/05 09:33:22;;;;;;;13.53;4.97;;;3.10;99.90;;;3.58;100.00;98288.41;5039665;28;20517;-83
2022/12/05 09:35:52;;;;;;;7.33;4.00;;;3.10;99.90;;;3.58;100.00;98294.41;5043934;28;20471;-82
2022/12/05 09:38:20;;;;;;;8.30;4.27;;;3.10;99.90;;;3.61;100.00;98293.34;5043185;28;20487;-83
2022/12/05 09:41:04;;;;;;;5.80;4.43;;;3.10;99.90;;;3.62;100.00;98295.78;5046060;28;20467;-83
2022/12/05 09:43:49;;;;;;;10.40;5.20;;;3.10;99.90;;;3.66;100.00;98293.72;5046033;28;20501;-82
2022/12/05 09:46:35;;;;;;;5.97;4.07;;;3.10;99.90;;;3.67;100.00;98291.03;5038783;28;20462;-84
2022/12/05 09:49:08;;;;;;;11.10;4.60;;;3.20;99.90;;;3.69;100.00;98296.03;5043707;28;20478;-83
2022/12/05 09:51:46;;;;;;;8.83;4.73;;;3.20;99.90;;;3.70;100.00;98297.69;5045768;28;20818;-83
2022/12/05 09:54:25;;;;;;;13.17;5.60;;;3.20;99.90;;;3.73;100.00;98292.22;5043707;28;20462;-79
2022/12/05 09:56:55;;;;;;;8.53;4.70;;;3.30;99.90;;;3.73;100.00;98293.03;5042186;28;20594;-83
2022/12/05 09:59:28;;;;;;;8.80;4.83;;;3.20;99.90;;;3.76;100.00;98297.13;5041396;28;21212;-82
2022/12/05 10:02:14;;;;;;;7.97;3.70;;;3.30;99.90;;;3.77;100.00;98285.84;5039020;28;20563;-82
2022/12/05 10:04:57;;;;;;;8.30;3.90;;;3.40;99.90;;;3.78;100.00;98284.88;5045642;28;20978;-82
2022/12/05 10:07:37;;;;;;;6.00;4.70;;;3.40;99.90;;;3.76;100.00;98284.19;5041637;28;20468;-82
2022/12/05 10:10:41;;;;;;;8.03;4.10;;;3.20;99.90;;;3.78;100.00;98288.28;5048214;28;20835;-81
2022/12/05 10:13:40;;;;;;;5.83;3.97;;;3.20;99.90;;;3.79;100.00;98276.16;5051886;28;20984;-83
2022/12/05 10:16:17;;;;;;;6.53;4.17;;;3.30;99.90;;;3.78;100.00;98277.94;5050525;28;20498;-82
2022/12/05 10:18:53;;;;;;;7.77;4.70;;;3.30;99.90;;;3.81;100.00;98274.25;5046429;28;20497;-82
2022/12/05 10:21:31;;;;;;;10.70;4.57;;;3.30;99.90;;;3.81;100.00;98274.25;5046053;28;20474;-83
2022/12/05 10:24:02;;;;;;;11.37;4.50;;;3.30;99.90;;;3.84;100.00;98271.38;5050196;28;20522;-83
2022/12/05 10:26:37;;;;;;;8.93;5.10;;;3.30;99.90;;;3.85;100.00;98275.63;5050078;28;20557;-83
2022/12/05 10:29:24;;;;;;;8.10;4.63;;;3.30;99.90;;;3.88;100.00;98283.09;5048710;28;21248;-82
2022/12/05 10:32:05;;;;;;;7.60;4.10;;;3.30;99.90;;;3.89;100.00;98282.13;5044939;28;20458;-82
2022/12/05 10:34:40;;;;;;;7.73;4.33;;;3.30;99.90;;;3.91;100.00;98285.41;5047302;28;20462;-82
2022/12/05 10:37:16;;;;;;;8.10;4.77;;;3.30;99.90;;;3.90;100.00;98284.59;5047290;28;20597;-82
2022/12/05 10:39:46;;;;;;;5.90;3.83;;;3.40;99.90;;;3.91;100.00;98285.41;5044755;28;20904;-83
2022/12/05 10:42:20;;;;;;;8.60;4.87;;;3.30;99.90;;;3.92;100.00;98287.03;5044182;28;20960;-83
2022/12/05 10:44:57;;;;;;;6.53;3.80;;;3.30;99.90;;;3.94;100.00;98290.28;5044337;28;21016;-82
2022/12/05 10:47:28;;;;;;;9.13;4.50;;;3.40;99.90;;;3.97;100.00;98290.00;5045996;28;20514;-83
2022/12/05 10:50:04;;;;;;;6.87;4.20;;;3.40;99.90;;;4.00;100.00;98290.53;5046249;28;20529;-84
2022/12/05 10:52:35;;;;;;;7.10;4.77;;;3.40;99.90;;;4.04;100.00;98283.31;5046828;28;20531;-82
2022/12/05 10:55:09;;;;;;;10.30;4.90;;;3.50;99.90;;;4.04;100.00;98286.72;5044671;28;20463;-83
2022/12/05 10:57:39;;;;;;;11.37;4.83;;;3.50;99.90;;;4.04;100.00;98278.97;5044890;28;20502;-82
2022/12/05 11:00:14;;;;;;;7.80;4.20;;;3.50;99.90;;;4.06;100.00;98278.84;5043368;28;20493;-82